createdAt,value
2022-12-01T00:00:11.846Z,35.03
2022-12-01T00:00:41.969Z,34.97
2022-12-01T00:01:11.967Z,35.03
2022-12-01T00:01:42.146Z,35.03
2022-12-01T00:02:12.222Z,34.98
2022-12-01T00:02:42.222Z,34.94
2022-12-01T00:03:12.403Z,34.97
2022-12-01T00:03:42.360Z,35.03
2022-12-01T00:04:12.401Z,34.97
2022-12-01T00:04:42.400Z,35.03
2022-12-01T00:05:12.386Z,35.02
2022-12-01T00:05:42.516Z,35.00
2022-12-01T00:06:12.512Z,34.99
2022-12-01T00:06:42.507Z,34.99
2022-12-01T00:07:12.623Z,34.95
2022-12-01T00:07:42.704Z,34.97
2022-12-01T00:08:12.725Z,34.99
2022-12-01T00:08:42.725Z,34.95
2022-12-01T00:09:18.005Z,35.00
2022-12-01T00:09:42.738Z,34.99
2022-12-01T00:10:12.710Z,35.00
2022-12-01T00:10:42.826Z,34.99
2022-12-01T00:11:12.958Z,35.03
2022-12-01T00:11:42.980Z,35.00
2022-12-01T00:12:12.968Z,34.97
2022-12-01T00:12:42.977Z,35.00
2022-12-01T00:13:12.983Z,34.97
2022-12-01T00:13:43.090Z,34.94
2022-12-01T00:14:13.097Z,34.95
2022-12-01T00:14:43.096Z,34.98
2022-12-01T00:15:13.176Z,34.94
2022-12-01T00:15:43.244Z,34.98
2022-12-01T00:16:13.450Z,34.95
2022-12-01T00:16:43.501Z,34.97
2022-12-01T00:17:13.479Z,34.97
2022-12-01T00:17:43.573Z,34.93
2022-12-01T00:18:13.656Z,35.00
2022-12-01T00:18:43.745Z,34.94
2022-12-01T00:19:13.815Z,34.97
2022-12-01T00:19:43.893Z,34.95
2022-12-01T00:20:13.976Z,34.94
2022-12-01T00:20:44.035Z,34.97
2022-12-01T00:21:14.130Z,34.93
2022-12-01T00:21:44.230Z,34.97
2022-12-01T00:22:14.305Z,34.97
2022-12-01T00:22:44.384Z,34.94
2022-12-01T00:23:14.452Z,34.93
2022-12-01T00:23:44.539Z,34.97
2022-12-01T00:24:14.614Z,34.88
2022-12-01T00:24:44.733Z,34.93
2022-12-01T00:25:14.822Z,34.99
2022-12-01T00:25:44.944Z,34.91
2022-12-01T00:26:14.987Z,34.97
2022-12-01T00:26:45.021Z,34.93
2022-12-01T00:27:15.125Z,34.91
2022-12-01T00:27:45.153Z,34.93
2022-12-01T00:28:15.242Z,34.97
2022-12-01T00:28:45.278Z,34.93
2022-12-01T00:29:15.367Z,34.92
2022-12-01T00:29:45.526Z,34.93
2022-12-01T00:30:15.539Z,34.95
2022-12-01T00:30:45.624Z,34.95
2022-12-01T00:31:15.703Z,34.94
2022-12-01T00:31:45.905Z,34.93
2022-12-01T00:32:15.983Z,34.98
2022-12-01T00:32:45.927Z,34.99
2022-12-01T00:33:16.011Z,34.98
2022-12-01T00:33:46.020Z,34.97
2022-12-01T00:34:16.097Z,34.95
2022-12-01T00:34:46.100Z,34.95
2022-12-01T00:35:16.095Z,34.99
2022-12-01T00:35:46.204Z,34.94
2022-12-01T00:36:16.349Z,35.01
2022-12-01T00:36:46.336Z,34.97
2022-12-01T00:37:16.328Z,34.91
2022-12-01T00:37:46.451Z,34.94
2022-12-01T00:38:16.442Z,34.94
2022-12-01T00:38:46.562Z,34.94
2022-12-01T00:39:16.674Z,34.97
2022-12-01T00:39:46.959Z,34.93
2022-12-01T00:40:16.843Z,34.97
2022-12-01T00:40:46.820Z,34.95
2022-12-01T00:41:16.983Z,34.97
2022-12-01T00:41:46.893Z,34.94
2022-12-01T00:42:16.917Z,34.97
2022-12-01T00:42:46.903Z,34.93
2022-12-01T00:43:16.928Z,34.98
2022-12-01T00:43:46.973Z,34.94
2022-12-01T00:44:16.946Z,34.94
2022-12-01T00:44:46.950Z,34.91
2022-12-01T00:45:17.060Z,34.95
2022-12-01T00:45:47.289Z,34.97
2022-12-01T00:46:17.265Z,34.97
2022-12-01T00:46:47.294Z,34.91
2022-12-01T00:47:17.361Z,34.95
2022-12-01T00:47:47.464Z,34.98
2022-12-01T00:48:17.587Z,34.94
2022-12-01T00:48:47.665Z,34.97
2022-12-01T00:49:17.694Z,34.94
2022-12-01T00:49:48.000Z,34.93
2022-12-01T00:50:17.736Z,34.94
2022-12-01T00:50:47.858Z,34.91
2022-12-01T00:51:17.863Z,34.95
2022-12-01T00:51:47.862Z,34.92
2022-12-01T00:52:17.852Z,34.90
2022-12-01T00:52:47.976Z,34.95
2022-12-01T00:53:17.988Z,34.91
2022-12-01T00:53:47.970Z,34.95
2022-12-01T00:54:18.088Z,34.90
2022-12-01T00:54:48.198Z,34.94
2022-12-01T00:55:18.211Z,34.97
2022-12-01T00:55:48.240Z,34.94
2022-12-01T00:56:18.259Z,34.91
2022-12-01T00:56:48.262Z,34.93
2022-12-01T00:57:18.261Z,34.91
2022-12-01T00:57:48.372Z,34.95
2022-12-01T00:58:18.533Z,34.88
2022-12-01T00:58:48.504Z,34.91
2022-12-01T00:59:18.635Z,34.92
2022-12-01T00:59:48.914Z,34.94
2022-12-01T01:00:18.757Z,34.90
2022-12-01T01:00:48.862Z,34.93
2022-12-01T01:01:18.921Z,34.88
2022-12-01T01:01:49.023Z,34.88
2022-12-01T01:02:19.145Z,34.88
2022-12-01T01:02:49.067Z,34.94
2022-12-01T01:03:19.091Z,34.91
2022-12-01T01:03:49.097Z,34.93
2022-12-01T01:04:19.080Z,34.93
2022-12-01T01:04:49.195Z,34.88
2022-12-01T01:05:19.196Z,34.91
2022-12-01T01:05:49.308Z,34.92
2022-12-01T01:06:19.446Z,34.91
2022-12-01T01:06:49.468Z,34.91
2022-12-01T01:07:19.592Z,34.87
2022-12-01T01:07:49.550Z,34.91
2022-12-01T01:08:19.546Z,34.90
2022-12-01T01:08:49.546Z,34.86
2022-12-01T01:09:19.660Z,34.90
2022-12-01T01:09:49.969Z,34.90
2022-12-01T01:10:19.669Z,34.91
2022-12-01T01:10:49.801Z,34.87
2022-12-01T01:11:19.851Z,34.94
2022-12-01T01:11:49.945Z,34.88
2022-12-01T01:12:19.945Z,34.91
2022-12-01T01:12:50.051Z,34.90
2022-12-01T01:13:20.098Z,34.90
2022-12-01T01:13:50.078Z,34.90
2022-12-01T01:14:20.121Z,34.86
2022-12-01T01:14:50.135Z,34.88
2022-12-01T01:15:20.202Z,34.90
2022-12-01T01:15:50.282Z,34.91
2022-12-01T01:16:20.423Z,34.87
2022-12-01T01:16:50.454Z,34.88
2022-12-01T01:17:20.427Z,34.93
2022-12-01T01:17:50.524Z,34.91
2022-12-01T01:18:20.606Z,34.90
2022-12-01T01:18:50.718Z,34.97
2022-12-01T01:19:20.794Z,34.85
2022-12-01T01:19:51.209Z,34.88
2022-12-01T01:20:20.989Z,34.94
2022-12-01T01:20:51.068Z,34.84
2022-12-01T01:21:21.171Z,34.86
2022-12-01T01:21:51.239Z,34.90
2022-12-01T01:22:21.324Z,34.91
2022-12-01T01:22:51.402Z,34.85
2022-12-01T01:23:21.500Z,34.87
2022-12-01T01:23:51.569Z,34.91
2022-12-01T01:24:21.676Z,34.86
2022-12-01T01:24:51.733Z,34.91
2022-12-01T01:25:21.850Z,34.88
2022-12-01T01:25:51.956Z,34.92
2022-12-01T01:26:22.081Z,34.90
2022-12-01T01:26:52.234Z,34.85
2022-12-01T01:27:22.217Z,34.90
2022-12-01T01:27:52.188Z,34.88
2022-12-01T01:28:22.326Z,34.91
2022-12-01T01:28:52.314Z,34.92
2022-12-01T01:29:22.423Z,34.89
2022-12-01T01:29:52.441Z,34.91
2022-12-01T01:30:22.498Z,34.95
2022-12-01T01:30:52.590Z,34.88
2022-12-01T01:31:22.656Z,34.92
2022-12-01T01:31:52.675Z,34.92
2022-12-01T01:32:22.686Z,34.91
2022-12-01T01:32:52.655Z,34.91
2022-12-01T01:33:22.661Z,34.95
2022-12-01T01:33:52.667Z,34.90
2022-12-01T01:34:22.778Z,34.91
2022-12-01T01:34:52.776Z,34.92
2022-12-01T01:35:22.779Z,34.90
2022-12-01T01:35:52.905Z,34.91
2022-12-01T01:36:23.008Z,34.92
2022-12-01T01:36:53.014Z,34.84
2022-12-01T01:37:23.159Z,34.92
2022-12-01T01:37:53.045Z,34.91
2022-12-01T01:38:23.144Z,34.85
2022-12-01T01:38:53.167Z,34.86
2022-12-01T01:39:23.184Z,34.89
2022-12-01T01:39:53.168Z,34.86
2022-12-01T01:40:23.162Z,34.90
2022-12-01T01:40:53.157Z,34.88
2022-12-01T01:41:23.183Z,34.86
2022-12-01T01:41:53.151Z,34.88
2022-12-01T01:42:23.189Z,34.86
2022-12-01T01:42:53.160Z,34.89
2022-12-01T01:43:23.159Z,34.86
2022-12-01T01:43:53.167Z,34.86
2022-12-01T01:44:23.276Z,34.86
2022-12-01T01:44:53.382Z,34.88
2022-12-01T01:45:23.504Z,34.85
2022-12-01T01:45:53.591Z,34.85
2022-12-01T01:46:23.658Z,34.86
2022-12-01T01:46:53.696Z,34.86
2022-12-01T01:47:23.680Z,34.86
2022-12-01T01:47:53.795Z,34.85
2022-12-01T01:48:23.897Z,34.85
2022-12-01T01:48:54.038Z,34.85
2022-12-01T01:49:24.158Z,34.88
2022-12-01T01:49:54.150Z,34.86
2022-12-01T01:50:24.144Z,34.91
2022-12-01T01:50:54.268Z,34.85
2022-12-01T01:51:24.270Z,34.83
2022-12-01T01:51:54.267Z,34.84
2022-12-01T01:52:24.313Z,34.84
2022-12-01T01:52:54.291Z,34.82
2022-12-01T01:53:24.309Z,34.84
2022-12-01T01:53:54.326Z,34.84
2022-12-01T01:54:24.332Z,34.84
2022-12-01T01:54:54.440Z,34.84
2022-12-01T01:55:24.567Z,34.80
2022-12-01T01:55:54.556Z,34.85
2022-12-01T01:56:24.676Z,34.85
2022-12-01T01:56:54.681Z,34.85
2022-12-01T01:57:24.717Z,34.82
2022-12-01T01:57:54.671Z,34.86
2022-12-01T01:58:24.786Z,34.82
2022-12-01T01:58:54.908Z,34.82
2022-12-01T01:59:25.019Z,34.84
2022-12-01T01:59:55.015Z,34.79
2022-12-01T02:00:25.032Z,34.85
2022-12-01T02:00:55.055Z,34.80
2022-12-01T02:01:25.062Z,34.82
2022-12-01T02:01:55.184Z,34.84
2022-12-01T02:02:25.238Z,34.80
2022-12-01T02:02:55.332Z,34.76
2022-12-01T02:03:25.349Z,34.84
2022-12-01T02:03:55.347Z,34.84
2022-12-01T02:04:25.352Z,34.82
2022-12-01T02:04:55.348Z,34.82
2022-12-01T02:05:25.356Z,34.79
2022-12-01T02:05:56.224Z,34.79
2022-12-01T02:06:25.403Z,34.78
2022-12-01T02:06:55.410Z,34.84
2022-12-01T02:07:25.488Z,34.81
2022-12-01T02:07:55.538Z,34.80
2022-12-01T02:08:25.541Z,34.79
2022-12-01T02:08:55.534Z,34.82
2022-12-01T02:09:25.669Z,34.76
2022-12-01T02:09:55.706Z,34.81
2022-12-01T02:10:25.698Z,34.81
2022-12-01T02:10:55.702Z,34.85
2022-12-01T02:11:25.800Z,34.85
2022-12-01T02:11:55.926Z,34.82
2022-12-01T02:12:25.943Z,34.78
2022-12-01T02:12:55.957Z,34.76
2022-12-01T02:13:25.936Z,34.76
2022-12-01T02:13:56.066Z,34.81
2022-12-01T02:14:26.036Z,34.79
2022-12-01T02:14:56.136Z,34.81
2022-12-01T02:15:26.228Z,34.78
2022-12-01T02:15:56.311Z,34.76
2022-12-01T02:16:26.418Z,34.80
2022-12-01T02:16:56.449Z,34.81
2022-12-01T02:17:26.423Z,34.81
2022-12-01T02:17:56.504Z,34.79
2022-12-01T02:18:26.583Z,34.76
2022-12-01T02:18:56.653Z,34.78
2022-12-01T02:19:26.745Z,34.80
2022-12-01T02:19:56.886Z,34.75
2022-12-01T02:20:26.931Z,34.82
2022-12-01T02:20:57.004Z,34.75
2022-12-01T02:21:27.108Z,34.79
2022-12-01T02:21:57.109Z,34.80
2022-12-01T02:22:27.204Z,34.76
2022-12-01T02:22:57.284Z,34.80
2022-12-01T02:23:27.381Z,34.76
2022-12-01T02:23:57.461Z,34.78
2022-12-01T02:24:27.545Z,34.76
2022-12-01T02:24:57.691Z,34.78
2022-12-01T02:25:27.665Z,34.80
2022-12-01T02:25:57.705Z,34.73
2022-12-01T02:26:27.690Z,34.82
2022-12-01T02:26:57.704Z,34.74
2022-12-01T02:27:27.726Z,34.80
2022-12-01T02:27:57.730Z,34.76
2022-12-01T02:28:27.739Z,34.78
2022-12-01T02:28:57.719Z,34.78
2022-12-01T02:29:27.705Z,34.74
2022-12-01T02:29:57.826Z,34.79
2022-12-01T02:30:27.884Z,34.78
2022-12-01T02:30:57.938Z,34.79
2022-12-01T02:31:27.917Z,34.79
2022-12-01T02:31:58.059Z,34.76
2022-12-01T02:32:28.058Z,34.79
2022-12-01T02:32:58.067Z,34.73
2022-12-01T02:33:28.065Z,34.78
2022-12-01T02:33:58.072Z,34.76
2022-12-01T02:34:28.065Z,34.79
2022-12-01T02:34:58.069Z,34.76
2022-12-01T02:35:28.063Z,34.76
2022-12-01T02:35:58.095Z,34.80
2022-12-01T02:36:28.084Z,34.77
2022-12-01T02:36:58.083Z,34.81
2022-12-01T02:37:28.079Z,34.79
2022-12-01T02:37:58.190Z,34.79
2022-12-01T02:38:28.195Z,34.72
2022-12-01T02:38:58.197Z,34.82
2022-12-01T02:39:28.199Z,34.70
2022-12-01T02:39:58.203Z,34.74
2022-12-01T02:40:28.193Z,34.75
2022-12-01T02:40:58.190Z,34.78
2022-12-01T02:41:28.313Z,34.73
2022-12-01T02:41:58.428Z,34.77
2022-12-01T02:42:28.559Z,34.76
2022-12-01T02:42:58.560Z,34.74
2022-12-01T02:43:28.583Z,34.73
2022-12-01T02:43:58.607Z,34.73
2022-12-01T02:44:28.614Z,34.72
2022-12-01T02:44:58.626Z,34.73
2022-12-01T02:45:28.646Z,34.74
2022-12-01T02:45:58.721Z,34.72
2022-12-01T02:46:28.745Z,34.76
2022-12-01T02:46:58.739Z,34.73
2022-12-01T02:47:28.969Z,34.76
2022-12-01T02:47:58.828Z,34.72
2022-12-01T02:48:28.944Z,34.76
2022-12-01T02:48:58.943Z,34.74
2022-12-01T02:49:29.051Z,34.74
2022-12-01T02:49:59.159Z,34.76
2022-12-01T02:50:29.291Z,34.76
2022-12-01T02:50:59.291Z,34.76
2022-12-01T02:51:29.280Z,34.78
2022-12-01T02:51:59.387Z,34.71
2022-12-01T02:52:29.528Z,34.74
2022-12-01T02:52:59.526Z,34.76
2022-12-01T02:53:29.513Z,34.73
2022-12-01T02:53:59.629Z,34.73
2022-12-01T02:54:29.736Z,34.71
2022-12-01T02:54:59.869Z,34.74
2022-12-01T02:55:29.852Z,34.73
2022-12-01T02:55:59.848Z,34.73
2022-12-01T02:56:29.996Z,34.70
2022-12-01T02:57:00.040Z,34.77
2022-12-01T02:57:30.086Z,34.73
2022-12-01T02:58:00.179Z,34.76
2022-12-01T02:58:30.244Z,34.76
2022-12-01T02:59:00.238Z,34.77
2022-12-01T02:59:30.293Z,34.81
2022-12-01T03:00:00.299Z,34.74
2022-12-01T03:00:30.341Z,34.76
2022-12-01T03:01:00.411Z,34.76
2022-12-01T03:01:30.480Z,34.74
2022-12-01T03:02:00.566Z,34.77
2022-12-01T03:02:30.654Z,34.77
2022-12-01T03:03:00.603Z,34.73
2022-12-01T03:03:30.612Z,34.76
2022-12-01T03:04:00.625Z,34.77
2022-12-01T03:04:30.700Z,34.74
2022-12-01T03:05:00.791Z,34.75
2022-12-01T03:05:30.849Z,34.77
2022-12-01T03:06:00.843Z,34.76
2022-12-01T03:06:30.893Z,34.75
2022-12-01T03:07:00.925Z,34.81
2022-12-01T03:07:30.977Z,34.77
2022-12-01T03:08:01.131Z,34.79
2022-12-01T03:08:30.996Z,34.76
2022-12-01T03:09:01.077Z,34.80
2022-12-01T03:09:31.066Z,34.75
2022-12-01T03:10:01.116Z,34.80
2022-12-01T03:10:31.098Z,34.81
2022-12-01T03:11:01.217Z,34.77
2022-12-01T03:11:31.220Z,34.77
2022-12-01T03:12:01.224Z,34.80
2022-12-01T03:12:31.341Z,34.78
2022-12-01T03:13:01.338Z,34.77
2022-12-01T03:13:31.351Z,34.77
2022-12-01T03:14:01.457Z,34.76
2022-12-01T03:14:31.596Z,34.79
2022-12-01T03:15:01.685Z,34.74
2022-12-01T03:15:31.739Z,34.80
2022-12-01T03:16:01.915Z,34.78
2022-12-01T03:16:32.047Z,34.77
2022-12-01T03:17:01.995Z,34.75
2022-12-01T03:17:32.061Z,34.76
2022-12-01T03:18:02.141Z,34.75
2022-12-01T03:18:32.238Z,34.79
2022-12-01T03:19:02.310Z,34.71
2022-12-01T03:19:32.397Z,34.74
2022-12-01T03:20:02.474Z,34.76
2022-12-01T03:20:32.543Z,34.77
2022-12-01T03:21:02.627Z,34.73
2022-12-01T03:21:32.729Z,34.80
2022-12-01T03:22:02.781Z,34.79
2022-12-01T03:22:32.894Z,34.74
2022-12-01T03:23:02.962Z,34.74
2022-12-01T03:23:33.058Z,34.73
2022-12-01T03:24:03.140Z,34.74
2022-12-01T03:24:33.222Z,34.74
2022-12-01T03:25:03.360Z,34.76
2022-12-01T03:25:33.347Z,34.73
2022-12-01T03:26:03.460Z,34.76
2022-12-01T03:26:33.571Z,34.73
2022-12-01T03:27:03.684Z,34.73
2022-12-01T03:27:33.712Z,34.73
2022-12-01T03:28:23.219Z,34.71
2022-12-01T03:28:33.739Z,34.76
2022-12-01T03:29:03.797Z,34.73
2022-12-01T03:29:33.781Z,34.73
2022-12-01T03:30:03.921Z,34.71
2022-12-01T03:30:33.891Z,34.74
2022-12-01T03:31:04.104Z,34.70
2022-12-01T03:31:34.276Z,34.70
2022-12-01T03:32:04.175Z,34.73
2022-12-01T03:32:34.189Z,34.74
2022-12-01T03:33:04.181Z,34.71
2022-12-01T03:33:34.304Z,34.77
2022-12-01T03:34:04.310Z,34.71
2022-12-01T03:34:34.319Z,34.70
2022-12-01T03:35:04.319Z,34.72
2022-12-01T03:35:34.395Z,34.68
2022-12-01T03:36:04.411Z,34.68
2022-12-01T03:36:34.543Z,34.73
2022-12-01T03:37:04.534Z,34.73
2022-12-01T03:37:34.535Z,34.70
2022-12-01T03:38:04.539Z,34.71
2022-12-01T03:38:34.533Z,34.71
2022-12-01T03:39:04.655Z,34.68
2022-12-01T03:39:34.656Z,34.70
2022-12-01T03:40:04.760Z,34.71
2022-12-01T03:40:34.772Z,34.71
2022-12-01T03:41:04.763Z,34.74
2022-12-01T03:41:34.766Z,34.71
2022-12-01T03:42:04.768Z,34.71
2022-12-01T03:42:34.774Z,34.68
2022-12-01T03:43:04.777Z,34.70
2022-12-01T03:43:34.772Z,34.63
2022-12-01T03:44:04.881Z,34.67
2022-12-01T03:44:34.994Z,34.71
2022-12-01T03:45:05.128Z,34.70
2022-12-01T03:45:35.138Z,34.66
2022-12-01T03:46:05.169Z,34.67
2022-12-01T03:46:35.252Z,34.67
2022-12-01T03:47:05.264Z,34.67
2022-12-01T03:47:35.287Z,34.68
2022-12-01T03:48:05.305Z,34.67
2022-12-01T03:48:35.327Z,34.68
2022-12-01T03:49:05.307Z,34.67
2022-12-01T03:49:35.339Z,34.68
2022-12-01T03:50:05.338Z,34.71
2022-12-01T03:50:35.321Z,34.71
2022-12-01T03:51:05.429Z,34.64
2022-12-01T03:51:35.448Z,34.70
2022-12-01T03:52:05.563Z,34.67
2022-12-01T03:52:35.663Z,34.73
2022-12-01T03:53:05.785Z,34.70
2022-12-01T03:53:35.780Z,34.68
2022-12-01T03:54:05.892Z,34.73
2022-12-01T03:54:36.037Z,34.70
2022-12-01T03:55:06.025Z,34.73
2022-12-01T03:55:36.045Z,34.70
2022-12-01T03:56:06.033Z,34.67
2022-12-01T03:56:36.142Z,34.68
2022-12-01T03:57:06.286Z,34.65
2022-12-01T03:57:36.269Z,34.70
2022-12-01T03:58:06.403Z,34.68
2022-12-01T03:58:36.455Z,34.67
2022-12-01T03:59:06.457Z,34.68
2022-12-01T03:59:36.578Z,34.63
2022-12-01T04:00:06.588Z,34.70
2022-12-01T04:00:36.587Z,34.70
2022-12-01T04:01:06.621Z,34.68
2022-12-01T04:01:36.681Z,34.65
2022-12-01T04:02:06.760Z,34.68
2022-12-01T04:02:36.789Z,34.67
2022-12-01T04:03:06.820Z,34.73
2022-12-01T04:03:36.809Z,34.73
2022-12-01T04:04:06.809Z,34.68
2022-12-01T04:04:36.924Z,34.70
2022-12-01T04:05:07.046Z,34.74
2022-12-01T04:05:37.030Z,34.65
2022-12-01T04:06:07.157Z,34.70
2022-12-01T04:06:37.174Z,34.72
2022-12-01T04:07:07.150Z,34.70
2022-12-01T04:07:37.418Z,34.67
2022-12-01T04:08:07.377Z,34.64
2022-12-01T04:08:37.424Z,34.71
2022-12-01T04:09:07.408Z,34.67
2022-12-01T04:09:37.528Z,34.66
2022-12-01T04:10:07.643Z,34.68
2022-12-01T04:10:37.761Z,34.67
2022-12-01T04:11:07.869Z,34.71
2022-12-01T04:11:37.991Z,34.64
2022-12-01T04:12:07.981Z,34.65
2022-12-01T04:12:38.099Z,34.65
2022-12-01T04:13:08.240Z,34.71
2022-12-01T04:13:38.254Z,34.67
2022-12-01T04:14:08.256Z,34.68
2022-12-01T04:14:38.243Z,34.66
2022-12-01T04:15:08.316Z,34.74
2022-12-01T04:15:38.422Z,34.69
2022-12-01T04:16:08.589Z,34.65
2022-12-01T04:16:38.562Z,34.72
2022-12-01T04:17:08.652Z,34.66
2022-12-01T04:17:38.730Z,34.66
2022-12-01T04:18:08.813Z,34.66
2022-12-01T04:18:38.918Z,34.64
2022-12-01T04:19:09.007Z,34.65
2022-12-01T04:19:39.126Z,34.67
2022-12-01T04:20:09.192Z,34.68
2022-12-01T04:20:39.272Z,34.64
2022-12-01T04:21:09.354Z,34.66
2022-12-01T04:21:39.467Z,34.68
2022-12-01T04:22:09.548Z,34.68
2022-12-01T04:22:39.642Z,34.69
2022-12-01T04:23:09.728Z,34.65
2022-12-01T04:23:39.810Z,34.64
2022-12-01T04:24:09.891Z,34.65
2022-12-01T04:24:39.966Z,34.65
2022-12-01T04:25:10.079Z,34.59
2022-12-01T04:25:40.129Z,34.64
2022-12-01T04:26:15.611Z,34.59
2022-12-01T04:26:40.153Z,34.64
2022-12-01T04:27:10.177Z,34.60
2022-12-01T04:27:40.142Z,34.62
2022-12-01T04:28:10.169Z,34.65
2022-12-01T04:28:40.190Z,34.64
2022-12-01T04:29:10.179Z,34.68
2022-12-01T04:29:40.320Z,34.60
2022-12-01T04:30:10.309Z,34.62
2022-12-01T04:30:40.424Z,34.64
2022-12-01T04:31:10.577Z,34.60
2022-12-01T04:31:40.662Z,34.65
2022-12-01T04:32:10.685Z,34.61
2022-12-01T04:32:40.797Z,34.62
2022-12-01T04:33:10.905Z,34.62
2022-12-01T04:33:41.040Z,34.63
2022-12-01T04:34:11.034Z,34.65
2022-12-01T04:34:41.033Z,34.61
2022-12-01T04:35:11.037Z,34.61
2022-12-01T04:35:41.152Z,34.67
2022-12-01T04:36:11.161Z,34.69
2022-12-01T04:36:41.159Z,34.62
2022-12-01T04:37:11.299Z,34.64
2022-12-01T04:37:41.288Z,34.67
2022-12-01T04:38:11.306Z,34.62
2022-12-01T04:38:41.324Z,34.68
2022-12-01T04:39:11.307Z,34.64
2022-12-01T04:39:41.420Z,34.59
2022-12-01T04:40:11.544Z,34.60
2022-12-01T04:40:41.530Z,34.61
2022-12-01T04:41:11.654Z,34.58
2022-12-01T04:41:41.705Z,34.65
2022-12-01T04:42:11.701Z,34.65
2022-12-01T04:42:41.818Z,34.62
2022-12-01T04:43:11.824Z,34.64
2022-12-01T04:43:41.823Z,34.63
2022-12-01T04:44:11.808Z,34.64
2022-12-01T04:44:41.925Z,34.62
2022-12-01T04:45:12.049Z,34.62
2022-12-01T04:45:42.043Z,34.56
2022-12-01T04:46:12.209Z,34.61
2022-12-01T04:46:42.288Z,34.63
2022-12-01T04:47:12.321Z,34.60
2022-12-01T04:47:42.418Z,34.59
2022-12-01T04:48:12.533Z,34.68
2022-12-01T04:48:42.662Z,34.62
2022-12-01T04:49:12.645Z,34.67
2022-12-01T04:49:42.705Z,34.62
2022-12-01T04:50:12.797Z,34.84
2022-12-01T04:50:42.761Z,34.72
2022-12-01T04:51:12.763Z,34.72
2022-12-01T04:51:42.878Z,34.72
2022-12-01T04:52:12.883Z,34.73
2022-12-01T04:52:42.992Z,34.74
2022-12-01T04:53:13.121Z,34.71
2022-12-01T04:53:43.125Z,34.77
2022-12-01T04:54:13.252Z,34.84
2022-12-01T04:54:43.269Z,34.83
2022-12-01T04:55:13.257Z,34.90
2022-12-01T04:55:43.263Z,35.33
2022-12-01T04:56:13.395Z,35.23
2022-12-01T04:56:43.378Z,35.28
2022-12-01T04:57:13.545Z,35.20
2022-12-01T04:57:43.564Z,35.20
2022-12-01T04:58:13.555Z,35.19
2022-12-01T04:58:43.572Z,35.24
2022-12-01T04:59:13.577Z,35.18
2022-12-01T04:59:43.575Z,35.15
2022-12-01T05:00:13.560Z,35.15
2022-12-01T05:00:43.769Z,35.08
2022-12-01T05:01:13.892Z,35.09
2022-12-01T05:01:43.811Z,35.14
2022-12-01T05:02:13.868Z,35.24
2022-12-01T05:02:43.833Z,35.18
2022-12-01T05:03:15.294Z,35.17
2022-12-01T05:03:43.891Z,35.11
2022-12-01T05:04:14.006Z,35.14
2022-12-01T05:04:43.994Z,35.09
2022-12-01T05:05:14.004Z,35.15
2022-12-01T05:05:43.988Z,35.13
2022-12-01T05:06:14.105Z,35.14
2022-12-01T05:06:44.219Z,35.12
2022-12-01T05:07:14.356Z,35.08
2022-12-01T05:07:44.494Z,35.10
2022-12-01T05:08:14.432Z,35.12
2022-12-01T05:08:44.434Z,35.11
2022-12-01T05:09:17.527Z,35.08
2022-12-01T05:09:44.526Z,35.10
2022-12-01T05:10:14.506Z,35.05
2022-12-01T05:10:44.627Z,34.97
2022-12-01T05:11:14.633Z,34.98
2022-12-01T05:11:44.620Z,34.97
2022-12-01T05:12:14.723Z,34.97
2022-12-01T05:12:44.887Z,34.99
2022-12-01T05:13:14.875Z,34.98
2022-12-01T05:13:45.033Z,34.98
2022-12-01T05:14:15.028Z,35.00
2022-12-01T05:14:45.031Z,34.94
2022-12-01T05:15:15.026Z,35.00
2022-12-01T05:15:45.035Z,34.91
2022-12-01T05:16:15.262Z,34.95
2022-12-01T05:16:45.296Z,34.88
2022-12-01T05:17:15.265Z,34.91
2022-12-01T05:17:45.360Z,34.91
2022-12-01T05:18:15.426Z,34.91
2022-12-01T05:18:45.492Z,35.04
2022-12-01T05:19:15.531Z,34.98
2022-12-01T05:19:45.565Z,35.02
2022-12-01T05:20:15.578Z,35.02
2022-12-01T05:20:45.577Z,34.98
2022-12-01T05:21:15.686Z,35.00
2022-12-01T05:21:45.825Z,35.08
2022-12-01T05:22:15.862Z,35.09
2022-12-01T05:23:04.896Z,35.11
2022-12-01T05:23:17.196Z,35.41
2022-12-01T05:23:45.916Z,35.29
2022-12-01T05:24:15.977Z,35.29
2022-12-01T05:24:46.012Z,35.39
2022-12-01T05:25:16.103Z,35.42
2022-12-01T05:25:46.133Z,35.89
2022-12-01T05:26:16.164Z,36.38
2022-12-01T05:26:46.194Z,36.23
2022-12-01T05:27:16.231Z,36.15
2022-12-01T05:27:46.274Z,36.12
2022-12-01T05:28:16.301Z,36.16
2022-12-01T05:28:46.337Z,36.02
2022-12-01T05:29:16.366Z,35.96
2022-12-01T05:29:46.731Z,35.96
2022-12-01T05:30:16.512Z,36.02
2022-12-01T05:30:46.569Z,36.05
2022-12-01T05:31:16.691Z,36.08
2022-12-01T05:31:46.786Z,36.04
2022-12-01T05:32:16.720Z,35.98
2022-12-01T05:32:46.759Z,35.97
2022-12-01T05:33:16.814Z,35.93
2022-12-01T05:33:46.967Z,35.88
2022-12-01T05:34:16.838Z,35.77
2022-12-01T05:34:46.883Z,35.77
2022-12-01T05:35:16.938Z,35.76
2022-12-01T05:35:46.968Z,35.73
2022-12-01T05:36:17.032Z,35.70
2022-12-01T05:36:47.065Z,35.73
2022-12-01T05:37:17.097Z,35.66
2022-12-01T05:37:47.140Z,35.67
2022-12-01T05:38:17.167Z,35.66
2022-12-01T05:38:47.198Z,35.65
2022-12-01T05:39:17.271Z,35.85
2022-12-01T05:39:47.783Z,35.77
2022-12-01T05:40:17.293Z,35.71
2022-12-01T05:40:47.338Z,35.67
2022-12-01T05:41:17.429Z,35.67
2022-12-01T05:41:47.449Z,35.63
2022-12-01T05:42:17.490Z,35.62
2022-12-01T05:42:47.505Z,35.56
2022-12-01T05:43:17.550Z,35.63
2022-12-01T05:43:47.622Z,35.59
2022-12-01T05:44:17.680Z,35.70
2022-12-01T05:44:47.712Z,35.67
2022-12-01T05:45:17.749Z,35.64
2022-12-01T05:45:47.845Z,35.60
2022-12-01T05:46:17.969Z,35.59
2022-12-01T05:46:47.906Z,35.63
2022-12-01T05:47:17.929Z,35.60
2022-12-01T05:47:47.977Z,35.63
2022-12-01T05:48:18.009Z,35.61
2022-12-01T05:48:48.046Z,35.63
2022-12-01T05:49:18.112Z,35.62
2022-12-01T05:49:48.444Z,35.57
2022-12-01T05:50:18.207Z,35.53
2022-12-01T05:50:48.260Z,35.57
2022-12-01T05:51:18.289Z,35.57
2022-12-01T05:51:48.363Z,35.56
2022-12-01T05:52:18.413Z,35.56
2022-12-01T05:52:48.443Z,35.56
2022-12-01T05:53:18.478Z,35.53
2022-12-01T05:53:48.509Z,35.56
2022-12-01T05:54:18.572Z,35.50
2022-12-01T05:54:48.604Z,35.51
2022-12-01T05:55:18.629Z,35.55
2022-12-01T05:55:48.657Z,35.53
2022-12-01T05:56:18.727Z,35.56
2022-12-01T05:56:48.763Z,35.53
2022-12-01T05:57:18.797Z,35.52
2022-12-01T05:57:48.849Z,35.48
2022-12-01T05:58:18.873Z,35.61
2022-12-01T05:58:48.903Z,35.51
2022-12-01T05:59:18.953Z,35.59
2022-12-01T05:59:49.241Z,35.50
2022-12-01T06:00:19.003Z,35.54
2022-12-01T06:00:49.032Z,35.56
2022-12-01T06:01:19.061Z,35.53
2022-12-01T06:01:49.126Z,35.55
2022-12-01T06:02:19.187Z,35.59
2022-12-01T06:02:49.241Z,35.60
2022-12-01T06:03:19.287Z,35.60
2022-12-01T06:03:49.383Z,35.57
2022-12-01T06:04:19.561Z,35.62
2022-12-01T06:04:49.467Z,35.65
2022-12-01T06:05:19.515Z,35.59
2022-12-01T06:05:49.561Z,35.59
2022-12-01T06:06:19.597Z,35.59
2022-12-01T06:06:49.640Z,35.43
2022-12-01T06:07:19.706Z,35.43
2022-12-01T06:07:49.863Z,35.49
2022-12-01T06:08:19.788Z,35.49
2022-12-01T06:08:49.832Z,35.52
2022-12-01T06:09:19.859Z,35.48
2022-12-01T06:09:50.232Z,35.50
2022-12-01T06:10:19.903Z,35.46
2022-12-01T06:10:49.959Z,35.41
2022-12-01T06:11:20.001Z,35.40
2022-12-01T06:11:52.521Z,35.42
2022-12-01T06:12:20.131Z,35.35
2022-12-01T06:12:50.189Z,35.30
2022-12-01T06:13:20.229Z,35.28
2022-12-01T06:13:50.296Z,35.25
2022-12-01T06:14:20.354Z,35.24
2022-12-01T06:14:50.394Z,35.17
2022-12-01T06:15:20.411Z,35.13
2022-12-01T06:15:50.399Z,35.09
2022-12-01T06:16:20.607Z,35.02
2022-12-01T06:16:50.675Z,34.96
2022-12-01T06:17:20.716Z,34.93
2022-12-01T06:17:50.752Z,34.88
2022-12-01T06:18:20.759Z,34.84
2022-12-01T06:18:50.752Z,34.75
2022-12-01T06:19:20.814Z,34.68
2022-12-01T06:19:51.106Z,34.63
2022-12-01T06:20:20.823Z,34.57
2022-12-01T06:20:50.845Z,34.52
2022-12-01T06:21:20.895Z,34.50
2022-12-01T06:21:50.912Z,34.45
2022-12-01T06:22:20.908Z,34.39
2022-12-01T06:22:50.920Z,34.37
2022-12-01T06:23:20.927Z,34.27
2022-12-01T06:23:50.926Z,34.28
2022-12-01T06:24:21.069Z,34.22
2022-12-01T06:24:51.092Z,34.14
2022-12-01T06:25:21.127Z,34.06
2022-12-01T06:25:51.164Z,34.03
2022-12-01T06:26:21.197Z,33.94
2022-12-01T06:26:51.238Z,33.89